createdAt,value
2022-12-22T00:01:05.269Z,0.30
2022-12-22T00:03:51.667Z,0.50
2022-12-22T00:06:38.006Z,0.40
2022-12-22T00:09:23.965Z,0.40
2022-12-22T00:12:10.089Z,0.40
2022-12-22T00:14:55.995Z,0.50
2022-12-22T00:17:47.012Z,0.43
2022-12-22T00:20:35.320Z,0.30
2022-12-22T00:23:21.475Z,0.40
2022-12-22T00:26:07.900Z,0.65
2022-12-22T00:28:54.667Z,0.40
2022-12-22T00:31:41.561Z,0.40
2022-12-22T00:34:33.098Z,0.40
2022-12-22T00:37:19.541Z,0.40
2022-12-22T00:40:05.339Z,0.40
2022-12-22T00:42:51.203Z,0.50
2022-12-22T00:45:37.646Z,0.40
2022-12-22T00:48:24.460Z,0.30
2022-12-22T00:51:11.807Z,0.30
2022-12-22T00:53:57.725Z,0.60
2022-12-22T00:56:43.945Z,0.35
2022-12-22T00:59:30.126Z,0.30
2022-12-22T01:02:16.187Z,0.40
2022-12-22T01:07:48.942Z,0.30
2022-12-22T01:10:35.043Z,0.20
2022-12-22T01:13:21.072Z,0.40
2022-12-22T01:16:07.039Z,0.30
2022-12-22T01:21:39.649Z,0.20
2022-12-22T01:24:30.831Z,0.30
2022-12-22T01:27:17.444Z,0.30
2022-12-22T01:30:03.820Z,0.30
2022-12-22T01:32:49.677Z,0.30
2022-12-22T01:35:38.582Z,0.30
2022-12-22T01:38:24.918Z,0.30
2022-12-22T01:41:13.820Z,0.30
2022-12-22T01:43:59.609Z,0.25
2022-12-22T01:46:48.067Z,0.38
2022-12-22T01:49:37.456Z,0.20
2022-12-22T01:52:25.255Z,0.40
2022-12-22T01:55:11.605Z,0.20
2022-12-22T01:57:59.385Z,0.40
2022-12-22T02:00:45.273Z,0.30
2022-12-22T02:03:35.484Z,0.20
2022-12-22T02:06:33.520Z,0.30
2022-12-22T02:09:37.342Z,0.30
2022-12-22T02:12:30.125Z,0.22
2022-12-22T02:15:24.093Z,0.30
2022-12-22T02:18:18.676Z,0.30
2022-12-22T02:21:11.563Z,0.20
2022-12-22T02:24:11.004Z,0.20
2022-12-22T02:27:03.369Z,0.20
2022-12-22T02:29:53.240Z,0.30
2022-12-22T02:32:41.732Z,0.20
2022-12-22T02:35:32.889Z,0.30
2022-12-22T02:38:28.970Z,0.30
2022-12-22T02:41:28.367Z,0.30
2022-12-22T02:44:33.018Z,0.28
2022-12-22T02:47:24.901Z,0.20
2022-12-22T02:50:14.124Z,0.30
2022-12-22T02:53:03.058Z,0.20
2022-12-22T02:55:50.196Z,0.30
2022-12-22T02:58:37.375Z,0.30
2022-12-22T03:01:24.867Z,0.20
2022-12-22T03:04:11.165Z,0.20
2022-12-22T03:06:56.960Z,0.20
2022-12-22T03:09:42.884Z,0.20
2022-12-22T03:12:28.976Z,0.30
2022-12-22T03:18:02.360Z,0.30
2022-12-22T03:20:48.287Z,0.20
2022-12-22T03:23:34.479Z,0.20
2022-12-22T03:26:02.930Z,0.30
2022-12-22T03:28:31.318Z,0.30
2022-12-22T03:31:01.852Z,0.40
2022-12-22T03:33:32.529Z,0.20
2022-12-22T03:36:01.556Z,0.30
2022-12-22T03:38:30.021Z,0.20
2022-12-22T03:40:58.461Z,0.30
2022-12-22T03:43:44.651Z,0.20
2022-12-22T03:46:32.673Z,0.20
2022-12-22T03:49:13.120Z,0.20
2022-12-22T03:51:43.668Z,0.20
2022-12-22T03:54:13.822Z,0.30
2022-12-22T03:56:42.904Z,0.22
2022-12-22T03:59:12.173Z,0.20
2022-12-22T04:01:43.553Z,0.40
2022-12-22T04:04:14.807Z,0.38
2022-12-22T04:06:43.335Z,0.28
2022-12-22T04:09:11.933Z,0.40
2022-12-22T04:11:58.538Z,0.40
2022-12-22T04:14:33.365Z,0.50
2022-12-22T04:17:03.130Z,0.40
2022-12-22T04:19:32.981Z,0.40
2022-12-22T04:22:01.717Z,0.40
2022-12-22T04:24:30.054Z,0.40
2022-12-22T04:26:58.412Z,0.32
2022-12-22T04:29:26.754Z,0.30
2022-12-22T04:31:55.162Z,0.40
2022-12-22T04:34:23.662Z,0.35
2022-12-22T04:36:53.415Z,0.50
2022-12-22T04:39:21.801Z,0.55
2022-12-22T04:41:50.152Z,0.70
2022-12-22T04:44:19.161Z,1.10
2022-12-22T04:46:47.582Z,2.78
2022-12-22T04:49:16.049Z,3.45
2022-12-22T04:51:44.372Z,4.20
2022-12-22T04:54:14.325Z,3.55
2022-12-22T04:56:42.706Z,2.10
2022-12-22T04:59:11.042Z,2.78
2022-12-22T05:01:39.542Z,1.70
2022-12-22T05:04:08.030Z,0.90
2022-12-22T05:06:36.463Z,0.90
2022-12-22T05:09:04.993Z,0.60
2022-12-22T05:11:34.755Z,0.60
2022-12-22T05:14:07.156Z,0.60
2022-12-22T05:16:36.404Z,0.50
2022-12-22T05:19:04.876Z,0.40
2022-12-22T05:21:33.210Z,0.30
2022-12-22T05:24:01.620Z,0.30
2022-12-22T05:26:30.047Z,0.30
2022-12-22T05:28:59.817Z,0.40
2022-12-22T05:31:28.710Z,0.40
2022-12-22T05:33:57.273Z,0.40
2022-12-22T05:36:25.574Z,0.50
2022-12-22T05:38:53.941Z,0.60
2022-12-22T05:41:22.358Z,0.50
2022-12-22T05:43:50.784Z,0.50
2022-12-22T05:46:20.614Z,0.70
2022-12-22T05:48:49.113Z,0.50
2022-12-22T05:51:17.656Z,0.52
2022-12-22T05:53:45.993Z,0.60
2022-12-22T05:56:14.360Z,0.60
2022-12-22T05:58:42.714Z,0.80
2022-12-22T06:01:11.054Z,0.80
2022-12-22T06:03:40.923Z,0.75
2022-12-22T06:06:09.439Z,1.13
2022-12-22T06:08:37.821Z,1.13
2022-12-22T06:11:06.499Z,1.15
2022-12-22T06:13:34.888Z,1.25
2022-12-22T06:16:03.304Z,1.08
2022-12-22T06:18:32.309Z,1.33
2022-12-22T06:21:02.110Z,1.25
2022-12-22T06:23:30.516Z,1.75
2022-12-22T06:26:00.407Z,1.50
2022-12-22T06:28:29.710Z,1.50
2022-12-22T06:30:58.228Z,1.63
2022-12-22T06:33:26.740Z,1.80
2022-12-22T06:35:58.834Z,1.65
2022-12-22T06:38:31.959Z,1.63
2022-12-22T06:41:04.876Z,1.85
2022-12-22T06:43:32.299Z,1.83
2022-12-22T06:46:00.853Z,2.10
2022-12-22T06:48:29.275Z,1.65
2022-12-22T06:51:00.928Z,1.80
2022-12-22T06:53:30.688Z,1.90
2022-12-22T06:55:59.006Z,1.73
2022-12-22T06:58:35.705Z,1.70
2022-12-22T07:02:02.818Z,1.70
2022-12-22T07:04:31.633Z,1.92
2022-12-22T07:07:00.048Z,1.83
2022-12-22T07:09:29.822Z,1.90
2022-12-22T07:11:58.181Z,2.30
2022-12-22T07:14:26.507Z,2.10
2022-12-22T07:16:55.009Z,1.80
2022-12-22T07:19:23.649Z,1.98
2022-12-22T07:21:52.163Z,2.00
2022-12-22T07:24:24.834Z,2.00
2022-12-22T07:26:54.582Z,2.15
2022-12-22T07:29:23.106Z,2.20
2022-12-22T07:31:51.627Z,2.08
2022-12-22T07:34:20.089Z,2.13
2022-12-22T07:36:48.529Z,2.47
2022-12-22T07:39:19.993Z,2.05
2022-12-22T07:42:05.995Z,2.28
2022-12-22T07:47:04.048Z,2.22
2022-12-22T07:49:49.908Z,2.45
2022-12-22T07:52:18.307Z,3.13
2022-12-22T07:54:46.735Z,3.33
2022-12-22T07:57:15.143Z,3.03
2022-12-22T07:59:44.887Z,3.22
2022-12-22T08:02:13.447Z,3.67
2022-12-22T08:04:42.458Z,3.83
2022-12-22T08:07:10.936Z,4.13
2022-12-22T08:09:39.633Z,4.53
2022-12-22T08:12:08.258Z,4.65
2022-12-22T08:14:36.749Z,4.70
2022-12-22T08:17:06.483Z,4.72
2022-12-22T08:19:35.174Z,5.03
2022-12-22T08:22:03.593Z,5.75
2022-12-22T08:24:32.087Z,6.05
2022-12-22T08:27:04.420Z,5.65
2022-12-22T08:29:36.609Z,6.45
2022-12-22T08:32:07.180Z,5.97
2022-12-22T08:34:49.743Z,6.05
2022-12-22T08:37:21.195Z,6.43
2022-12-22T08:39:54.039Z,6.45
2022-12-22T08:42:25.134Z,5.22
2022-12-22T08:44:54.080Z,5.90
2022-12-22T08:47:24.370Z,6.40
2022-12-22T08:49:53.184Z,6.32
2022-12-22T08:52:21.581Z,5.43
2022-12-22T08:54:50.067Z,5.55
2022-12-22T08:57:18.437Z,6.03
2022-12-22T08:59:48.139Z,5.43
2022-12-22T09:02:16.707Z,5.28
2022-12-22T09:04:46.738Z,4.70
2022-12-22T09:07:15.835Z,4.80
2022-12-22T09:09:45.339Z,5.03
2022-12-22T09:12:13.767Z,5.03
2022-12-22T09:14:42.477Z,5.72
2022-12-22T09:17:11.275Z,6.40
2022-12-22T09:19:40.125Z,6.85
2022-12-22T09:22:11.513Z,8.52
2022-12-22T09:24:39.957Z,8.05
2022-12-22T09:27:09.161Z,7.93
2022-12-22T09:29:37.887Z,8.10
2022-12-22T09:32:06.910Z,8.88
2022-12-22T09:34:35.326Z,8.32
2022-12-22T09:37:06.389Z,8.65
2022-12-22T09:39:38.460Z,8.65
2022-12-22T09:42:15.369Z,8.77
2022-12-22T09:44:46.493Z,8.35
2022-12-22T09:47:22.456Z,9.15
2022-12-22T09:49:51.809Z,8.10
2022-12-22T09:52:26.639Z,7.53
2022-12-22T09:54:56.736Z,7.70
2022-12-22T09:57:31.606Z,7.47
2022-12-22T10:00:07.754Z,7.18
2022-12-22T10:02:51.551Z,6.82
2022-12-22T10:05:28.476Z,6.63
2022-12-22T10:08:03.894Z,6.15
2022-12-22T10:10:33.845Z,6.25
2022-12-22T10:13:04.683Z,5.93
2022-12-22T10:15:36.595Z,5.55
2022-12-22T10:18:13.687Z,5.97
2022-12-22T10:20:43.830Z,5.32
2022-12-22T10:23:21.609Z,5.80
2022-12-22T10:29:02.892Z,5.97
2022-12-22T10:31:33.139Z,6.13
2022-12-22T10:34:12.729Z,5.10
2022-12-22T10:36:43.870Z,5.57
2022-12-22T10:39:21.193Z,5.90
2022-12-22T10:41:55.043Z,6.22
2022-12-22T10:44:27.196Z,6.35
2022-12-22T10:46:58.174Z,5.82
2022-12-22T10:49:30.553Z,6.43
2022-12-22T10:52:12.328Z,6.60
2022-12-22T10:54:42.619Z,7.18
2022-12-22T10:57:29.581Z,6.85
2022-12-22T10:59:59.474Z,6.65
2022-12-22T11:02:31.196Z,6.63
2022-12-22T11:05:06.010Z,7.47
2022-12-22T11:07:36.950Z,6.97
2022-12-22T11:10:17.832Z,6.25
2022-12-22T11:13:02.591Z,7.03
2022-12-22T11:15:40.237Z,6.47
2022-12-22T11:18:22.645Z,5.80
2022-12-22T11:20:58.323Z,5.32
2022-12-22T11:23:34.216Z,6.35
2022-12-22T11:26:13.343Z,5.70
2022-12-22T11:29:18.647Z,4.93
2022-12-22T11:31:58.880Z,5.03
2022-12-22T11:34:55.074Z,4.80
2022-12-22T11:38:13.936Z,4.63
2022-12-22T11:41:16.155Z,4.53
2022-12-22T11:43:59.569Z,4.15
2022-12-22T11:46:38.458Z,5.00
2022-12-22T11:49:23.539Z,4.78
2022-12-22T11:52:12.652Z,4.60
2022-12-22T11:54:53.941Z,4.85
2022-12-22T11:57:33.088Z,4.72
2022-12-22T12:00:08.669Z,4.97
2022-12-22T12:03:15.923Z,4.63
2022-12-22T12:06:24.059Z,4.63
2022-12-22T12:09:07.202Z,5.05
2022-12-22T12:11:44.022Z,4.95
2022-12-22T12:14:24.112Z,4.53
2022-12-22T12:16:59.216Z,4.45
2022-12-22T12:19:46.877Z,4.13
2022-12-22T12:22:26.824Z,4.43
2022-12-22T12:25:02.108Z,4.57
2022-12-22T12:27:46.774Z,4.57
2022-12-22T13:40:58.035Z,1.45
2022-12-22T13:43:31.687Z,1.92
2022-12-22T13:46:05.647Z,2.30
2022-12-22T13:48:50.864Z,2.47
2022-12-22T13:51:52.865Z,2.03
2022-12-22T13:54:57.677Z,2.28
2022-12-22T13:57:28.016Z,2.10
2022-12-22T13:59:57.742Z,1.80
2022-12-22T14:02:33.753Z,1.60
2022-12-22T14:05:13.409Z,1.63
2022-12-22T14:07:42.769Z,1.65
2022-12-22T14:10:55.346Z,1.30
2022-12-22T14:14:24.495Z,1.25
2022-12-22T14:17:09.678Z,0.93
2022-12-22T14:20:31.968Z,1.00
2022-12-22T14:24:03.303Z,0.80
2022-12-22T14:26:40.570Z,0.80
2022-12-22T14:29:18.463Z,0.70
2022-12-22T14:32:00.490Z,0.60
2022-12-22T14:34:36.850Z,0.60
2022-12-22T14:37:05.405Z,0.73
2022-12-22T14:39:34.649Z,0.70
2022-12-22T14:42:23.287Z,0.70
2022-12-22T14:44:54.947Z,0.80
2022-12-22T14:47:26.517Z,0.50
2022-12-22T14:49:58.457Z,0.73
2022-12-22T14:52:35.814Z,0.50
2022-12-22T14:55:09.211Z,0.70
2022-12-22T14:57:54.355Z,0.80
2022-12-22T15:00:36.997Z,0.80
2022-12-22T15:05:53.544Z,0.80
2022-12-22T15:08:49.370Z,0.50
2022-12-22T15:11:21.458Z,0.70
2022-12-22T15:13:59.831Z,0.73
2022-12-22T15:16:29.735Z,0.65
2022-12-22T15:18:58.809Z,0.70
2022-12-22T15:21:27.520Z,0.80
2022-12-22T15:23:55.911Z,0.80
2022-12-22T15:26:24.291Z,0.80
2022-12-22T15:28:52.775Z,0.70
2022-12-22T15:31:21.471Z,0.90
2022-12-22T15:33:51.145Z,0.80
2022-12-22T15:36:19.561Z,1.00
2022-12-22T15:38:47.892Z,0.90
2022-12-22T15:41:16.249Z,1.00
2022-12-22T15:44:00.114Z,0.90
2022-12-22T15:46:30.641Z,1.00
2022-12-22T15:49:01.310Z,1.10
2022-12-22T15:51:32.157Z,1.10
2022-12-22T15:54:01.296Z,1.10
2022-12-22T15:56:33.263Z,2.00
2022-12-22T15:59:02.549Z,1.13
2022-12-22T16:01:30.926Z,1.00
2022-12-22T16:04:00.749Z,1.38
2022-12-22T16:06:29.682Z,1.50
2022-12-22T16:08:58.124Z,1.48
2022-12-22T16:11:26.707Z,1.90
2022-12-22T16:13:55.190Z,1.45
2022-12-22T16:16:23.662Z,1.67
2022-12-22T16:18:52.148Z,1.25
2022-12-22T16:21:27.745Z,1.65
2022-12-22T16:26:25.265Z,1.10
2022-12-22T16:28:53.741Z,1.40
2022-12-22T16:31:24.177Z,1.48
2022-12-22T16:33:53.309Z,1.48
2022-12-22T16:36:23.014Z,1.40
2022-12-22T16:38:51.314Z,2.45
2022-12-22T16:41:23.119Z,1.83
2022-12-22T16:43:52.755Z,1.60
2022-12-22T16:46:23.269Z,1.63
2022-12-22T16:48:53.866Z,1.63
2022-12-22T16:51:26.253Z,2.05
2022-12-22T16:53:55.099Z,2.33
2022-12-22T16:56:26.828Z,2.25
2022-12-22T16:58:55.782Z,2.10
2022-12-22T17:01:35.955Z,2.08
2022-12-22T17:04:08.457Z,2.40
2022-12-22T17:06:39.062Z,2.03
2022-12-22T17:09:12.227Z,2.78
2022-12-22T17:11:41.135Z,2.88
2022-12-22T17:14:23.904Z,2.38
2022-12-22T17:16:53.489Z,1.98
2022-12-22T17:19:21.929Z,2.17
2022-12-22T17:21:53.213Z,2.20
2022-12-22T17:24:28.151Z,2.20
2022-12-22T17:27:00.795Z,2.35
2022-12-22T17:29:29.991Z,2.30
2022-12-22T17:31:58.397Z,2.58
2022-12-22T17:34:27.739Z,2.92
2022-12-22T17:36:59.218Z,2.70
2022-12-22T17:39:27.764Z,2.22
2022-12-22T17:41:57.536Z,2.63
2022-12-22T17:44:27.232Z,2.83
2022-12-22T17:46:55.731Z,2.53
2022-12-22T17:49:24.678Z,2.90
2022-12-22T17:51:53.231Z,2.92
2022-12-22T17:54:25.349Z,2.80
2022-12-22T17:56:57.498Z,2.33
2022-12-22T17:59:25.879Z,2.63
2022-12-22T18:01:54.268Z,2.58
2022-12-22T18:04:22.697Z,2.85
2022-12-22T18:06:51.463Z,3.47
2022-12-22T18:09:22.502Z,3.30
2022-12-22T18:11:52.248Z,2.80
2022-12-22T18:14:22.471Z,3.53
2022-12-22T18:16:50.979Z,3.28
2022-12-22T18:19:19.636Z,3.65
2022-12-22T18:21:48.143Z,3.88
2022-12-22T18:24:17.724Z,3.13
2022-12-22T18:26:47.440Z,3.35
2022-12-22T18:29:18.110Z,3.72
2022-12-22T18:31:46.657Z,4.05
2022-12-22T18:34:15.129Z,3.20
2022-12-22T18:36:45.374Z,2.78
2022-12-22T18:39:18.705Z,3.53
2022-12-22T18:41:47.452Z,3.22
2022-12-22T18:44:18.635Z,3.80
2022-12-22T18:46:48.600Z,3.28
2022-12-22T18:49:17.426Z,2.78
2022-12-22T18:51:46.402Z,2.70
2022-12-22T18:54:36.239Z,2.85
2022-12-22T18:57:04.853Z,3.00
2022-12-22T18:59:34.538Z,2.60
2022-12-22T19:02:16.229Z,2.63
2022-12-22T19:04:44.655Z,2.67
2022-12-22T19:07:16.206Z,2.38
2022-12-22T19:09:44.657Z,2.45
2022-12-22T19:12:14.932Z,2.22
2022-12-22T19:14:46.690Z,2.10
2022-12-22T19:17:20.652Z,2.03
2022-12-22T19:19:49.333Z,2.78
2022-12-22T19:22:17.695Z,2.67
2022-12-22T19:24:46.058Z,2.13
2022-12-22T19:27:20.531Z,2.92
2022-12-22T19:29:52.919Z,2.20
2022-12-22T19:32:25.746Z,1.95
2022-12-22T19:34:54.211Z,1.70
2022-12-22T19:37:22.594Z,2.25
2022-12-22T19:39:50.928Z,2.47
2022-12-22T19:42:22.755Z,2.08
2022-12-22T19:44:52.526Z,2.00
2022-12-22T19:47:26.675Z,2.15
2022-12-22T19:49:55.041Z,1.40
2022-12-22T19:52:23.335Z,1.98
2022-12-22T19:54:51.693Z,1.67
2022-12-22T19:57:23.100Z,1.88
2022-12-22T19:59:54.926Z,1.75
2022-12-22T20:02:27.342Z,1.50
2022-12-22T20:04:56.763Z,1.73
2022-12-22T20:07:27.170Z,1.60
2022-12-22T20:09:55.565Z,1.48
2022-12-22T20:12:27.144Z,1.70
2022-12-22T20:14:57.287Z,1.45
2022-12-22T20:17:26.019Z,1.80
2022-12-22T20:19:54.315Z,1.48
2022-12-22T20:22:23.798Z,1.63
2022-12-22T20:24:54.314Z,1.63
2022-12-22T20:27:26.625Z,1.60
2022-12-22T20:29:55.159Z,1.70
2022-12-22T20:32:28.082Z,1.80
2022-12-22T20:34:56.974Z,1.70
2022-12-22T20:37:26.198Z,1.90
2022-12-22T20:39:54.625Z,1.80
2022-12-22T20:42:24.879Z,1.70
2022-12-22T20:45:02.669Z,1.67
2022-12-22T20:47:35.140Z,1.80
2022-12-22T20:50:03.699Z,1.88
2022-12-22T20:52:32.035Z,1.42
2022-12-22T20:55:00.439Z,1.58
2022-12-22T20:57:28.922Z,2.15
2022-12-22T20:59:57.264Z,1.40
2022-12-22T21:02:28.960Z,1.55
2022-12-22T21:04:59.095Z,1.60
2022-12-22T21:07:27.583Z,1.20
2022-12-22T21:09:55.985Z,1.20
2022-12-22T21:12:24.537Z,1.42
2022-12-22T21:14:52.954Z,1.52
2022-12-22T21:17:21.560Z,1.50
2022-12-22T21:19:50.292Z,1.63
2022-12-22T21:22:19.966Z,1.85
2022-12-22T21:24:48.359Z,1.70
2022-12-22T21:27:20.880Z,2.00
2022-12-22T21:29:49.405Z,1.63
2022-12-22T21:32:17.783Z,1.73
2022-12-22T21:34:46.182Z,1.80
2022-12-22T21:37:18.143Z,2.00
2022-12-22T21:39:49.346Z,1.58
2022-12-22T21:42:19.523Z,1.70
2022-12-22T21:44:47.927Z,1.50
2022-12-22T21:47:19.595Z,1.58
2022-12-22T21:49:48.007Z,1.55
2022-12-22T21:52:16.480Z,1.52
2022-12-22T21:54:44.804Z,1.52
2022-12-22T21:57:16.599Z,1.55
2022-12-22T21:59:45.003Z,1.48
2022-12-22T22:02:17.287Z,1.50
2022-12-22T22:04:53.700Z,1.50
2022-12-22T22:07:22.790Z,1.50
2022-12-22T22:09:51.147Z,1.45
2022-12-22T22:12:36.967Z,1.40
2022-12-22T22:17:34.000Z,1.50
2022-12-22T22:20:02.349Z,1.50
2022-12-22T22:22:30.739Z,1.40
2022-12-22T22:24:59.047Z,1.73
2022-12-22T22:27:29.150Z,1.40
2022-12-22T22:29:57.668Z,1.42
2022-12-22T22:32:26.155Z,1.38
2022-12-22T22:34:54.786Z,1.67
2022-12-22T22:37:23.240Z,1.45
2022-12-22T22:39:52.562Z,1.70
2022-12-22T22:42:20.900Z,1.95
2022-12-22T22:44:50.612Z,1.52
2022-12-22T22:47:19.011Z,1.70
2022-12-22T22:49:47.325Z,1.60
2022-12-22T22:52:15.750Z,1.50
2022-12-22T22:54:44.075Z,1.38
2022-12-22T22:57:12.483Z,1.10
2022-12-22T22:59:40.853Z,1.10
2022-12-22T23:02:11.690Z,1.45
2022-12-22T23:04:40.295Z,1.35
2022-12-22T23:07:08.607Z,1.27
2022-12-22T23:09:36.948Z,1.42
2022-12-22T23:12:06.094Z,1.20
2022-12-22T23:14:34.667Z,1.30
2022-12-22T23:17:03.018Z,1.30
2022-12-22T23:19:32.918Z,1.48
2022-12-22T23:22:01.475Z,1.10
2022-12-22T23:24:31.128Z,1.00
2022-12-22T23:26:59.807Z,1.00
2022-12-22T23:29:28.376Z,1.00
2022-12-22T23:31:57.025Z,1.05
2022-12-22T23:34:25.438Z,1.00
2022-12-22T23:36:55.235Z,0.98
2022-12-22T23:39:23.781Z,0.90
2022-12-22T23:41:52.064Z,0.90
2022-12-22T23:44:20.448Z,1.00
2022-12-22T23:46:48.855Z,1.13
2022-12-22T23:49:17.289Z,1.05
2022-12-22T23:51:47.179Z,1.00
2022-12-22T23:54:16.922Z,1.13
2022-12-22T23:56:45.260Z,1.17
2022-12-22T23:59:13.772Z,1.35
